sensor_id;sensor_type;location;lat;lon;timestamp;temperature;humidity
38973;DHT22;25333;50.762;4.470;2023-12-20T13:41:10;7.70;99.90
38973;DHT22;25333;50.762;4.470;2023-12-20T13:43:35;7.70;99.90
38973;DHT22;25333;50.762;4.470;2023-12-20T13:46:01;7.80;99.90
38973;DHT22;25333;50.762;4.470;2023-12-20T13:48:27;7.80;99.90
38973;DHT22;25333;50.762;4.470;2023-12-20T13:50:53;7.80;99.90
38973;DHT22;25333;50.762;4.470;2023-12-20T13:53:20;7.80;99.90
38973;DHT22;25333;50.762;4.470;2023-12-20T13:55:45;7.80;99.90
38973;DHT22;25333;50.762;4.470;2023-12-20T13:58:11;7.80;99.90
38973;DHT22;25333;50.762;4.470;2023-12-20T14:00:37;7.80;99.90
38973;DHT22;25333;50.762;4.470;2023-12-20T14:03:04;7.80;99.90
38973;DHT22;25333;50.762;4.470;2023-12-20T14:05:29;7.80;99.90
38973;DHT22;25333;50.762;4.470;2023-12-20T14:07:55;7.80;99.90
38973;DHT22;25333;50.762;4.470;2023-12-20T14:10:24;7.90;99.90
38973;DHT22;25333;50.762;4.470;2023-12-20T14:12:52;7.90;99.90
38973;DHT22;25333;50.762;4.470;2023-12-20T14:15:18;7.90;99.90
38973;DHT22;25333;50.762;4.470;2023-12-20T14:17:44;7.90;99.90
38973;DHT22;25333;50.762;4.470;2023-12-20T14:20:10;7.90;99.90
38973;DHT22;25333;50.762;4.470;2023-12-20T14:22:38;8.00;99.90
38973;DHT22;25333;50.762;4.470;2023-12-20T14:25:04;8.00;99.90
38973;DHT22;25333;50.762;4.470;2023-12-20T14:27:31;7.90;99.90
38973;DHT22;25333;50.762;4.470;2023-12-20T14:29:57;7.90;99.90
38973;DHT22;25333;50.762;4.470;2023-12-20T14:32:24;8.00;99.90
38973;DHT22;25333;50.762;4.470;2023-12-20T14:34:52;8.00;99.90
38973;DHT22;25333;50.762;4.470;2023-12-20T14:37:17;8.00;99.90
38973;DHT22;25333;50.762;4.470;2023-12-20T14:39:43;8.00;99.90
38973;DHT22;25333;50.762;4.470;2023-12-20T14:42:09;8.10;99.90
38973;DHT22;25333;50.762;4.470;2023-12-20T14:44:40;8.00;99.90
38973;DHT22;25333;50.762;4.470;2023-12-20T14:47:06;8.10;99.90
38973;DHT22;25333;50.762;4.470;2023-12-20T14:49:32;8.10;99.90
38973;DHT22;25333;50.762;4.470;2023-12-20T14:51:58;8.10;99.90
38973;DHT22;25333;50.762;4.470;2023-12-20T14:54:24;8.10;99.90
38973;DHT22;25333;50.762;4.470;2023-12-20T14:56:49;8.10;99.90
38973;DHT22;25333;50.762;4.470;2023-12-20T14:59:15;8.10;99.90
38973;DHT22;25333;50.762;4.470;2023-12-20T15:01:41;8.10;99.90
38973;DHT22;25333;50.762;4.470;2023-12-20T15:04:07;8.20;99.90
38973;DHT22;25333;50.762;4.470;2023-12-20T15:06:33;8.20;99.90
38973;DHT22;25333;50.762;4.470;2023-12-20T15:08:59;8.20;99.90
38973;DHT22;25333;50.762;4.470;2023-12-20T15:11:25;8.20;99.90
38973;DHT22;25333;50.762;4.470;2023-12-20T15:13:53;8.20;99.90
38973;DHT22;25333;50.762;4.470;2023-12-20T15:16:22;8.20;99.90
38973;DHT22;25333;50.762;4.470;2023-12-20T15:18:49;8.20;99.90
38973;DHT22;25333;50.762;4.470;2023-12-20T15:21:15;8.30;99.90
38973;DHT22;25333;50.762;4.470;2023-12-20T15:23:41;8.30;99.90
38973;DHT22;25333;50.762;4.470;2023-12-20T15:26:21;8.30;99.90
38973;DHT22;25333;50.762;4.470;2023-12-20T15:28:47;8.20;99.90
38973;DHT22;25333;50.762;4.470;2023-12-20T15:31:13;8.30;99.90
38973;DHT22;25333;50.762;4.470;2023-12-20T15:33:39;8.30;99.90
38973;DHT22;25333;50.762;4.470;2023-12-20T15:36:05;8.30;99.90
38973;DHT22;25333;50.762;4.470;2023-12-20T15:38:31;8.30;99.90
38973;DHT22;25333;50.762;4.470;2023-12-20T15:40:57;8.30;99.90
38973;DHT22;25333;50.762;4.470;2023-12-20T15:43:22;8.30;99.90
38973;DHT22;25333;50.762;4.470;2023-12-20T15:45:48;8.30;99.90
38973;DHT22;25333;50.762;4.470;2023-12-20T15:48:14;8.30;99.90
38973;DHT22;25333;50.762;4.470;2023-12-20T15:50:44;8.40;99.90
38973;DHT22;25333;50.762;4.470;2023-12-20T15:53:10;8.30;99.90
38973;DHT22;25333;50.762;4.470;2023-12-20T15:55:38;8.30;99.90
38973;DHT22;25333;50.762;4.470;2023-12-20T15:58:06;8.40;99.90
38973;DHT22;25333;50.762;4.470;2023-12-20T16:00:32;8.40;99.90
38973;DHT22;25333;50.762;4.470;2023-12-20T16:02:57;8.30;99.90
38973;DHT22;25333;50.762;4.470;2023-12-20T16:05:23;8.30;99.90
38973;DHT22;25333;50.762;4.470;2023-12-20T16:07:49;8.40;99.90
38973;DHT22;25333;50.762;4.470;2023-12-20T16:10:15;8.30;99.90
38973;DHT22;25333;50.762;4.470;2023-12-20T16:12:41;8.40;99.90
38973;DHT22;25333;50.762;4.470;2023-12-20T16:15:07;8.40;99.90
38973;DHT22;25333;50.762;4.470;2023-12-20T16:17:33;8.40;99.90
38973;DHT22;25333;50.762;4.470;2023-12-20T16:20:01;8.40;99.90
38973;DHT22;25333;50.762;4.470;2023-12-20T16:22:26;8.40;99.90
38973;DHT22;25333;50.762;4.470;2023-12-20T16:24:52;8.30;99.90
38973;DHT22;25333;50.762;4.470;2023-12-20T16:27:18;8.40;99.90
38973;DHT22;25333;50.762;4.470;2023-12-20T16:29:46;8.40;99.90
38973;DHT22;25333;50.762;4.470;2023-12-20T16:32:11;8.40;99.90
38973;DHT22;25333;50.762;4.470;2023-12-20T16:34:37;8.40;99.90
38973;DHT22;25333;50.762;4.470;2023-12-20T16:37:03;8.40;99.90
38973;DHT22;25333;50.762;4.470;2023-12-20T16:39:29;8.50;99.90
38973;DHT22;25333;50.762;4.470;2023-12-20T16:41:55;8.40;99.90
38973;DHT22;25333;50.762;4.470;2023-12-20T16:44:20;8.40;99.90
38973;DHT22;25333;50.762;4.470;2023-12-20T16:47:06;8.40;99.90
38973;DHT22;25333;50.762;4.470;2023-12-20T16:49:58;8.50;99.90
38973;DHT22;25333;50.762;4.470;2023-12-20T16:52:23;8.50;99.90
38973;DHT22;25333;50.762;4.470;2023-12-20T16:54:53;8.50;99.90
38973;DHT22;25333;50.762;4.470;2023-12-20T16:57:19;8.50;99.90
38973;DHT22;25333;50.762;4.470;2023-12-20T16:59:46;8.50;99.90
38973;DHT22;25333;50.762;4.470;2023-12-20T17:02:15;8.40;99.90
38973;DHT22;25333;50.762;4.470;2023-12-20T17:04:40;8.40;99.90
38973;DHT22;25333;50.762;4.470;2023-12-20T17:07:08;8.40;99.90
38973;DHT22;25333;50.762;4.470;2023-12-20T17:09:36;8.40;99.90
38973;DHT22;25333;50.762;4.470;2023-12-20T17:12:31;8.40;99.90
38973;DHT22;25333;50.762;4.470;2023-12-20T17:14:59;8.40;99.90
38973;DHT22;25333;50.762;4.470;2023-12-20T17:17:41;8.40;99.90
38973;DHT22;25333;50.762;4.470;2023-12-20T17:20:28;8.40;99.90
38973;DHT22;25333;50.762;4.470;2023-12-20T17:22:53;8.40;99.90
38973;DHT22;25333;50.762;4.470;2023-12-20T17:25:19;8.40;99.90
38973;DHT22;25333;50.762;4.470;2023-12-20T17:27:44;8.50;99.90
38973;DHT22;25333;50.762;4.470;2023-12-20T17:30:11;8.40;99.90
38973;DHT22;25333;50.762;4.470;2023-12-20T17:32:36;8.50;99.90
38973;DHT22;25333;50.762;4.470;2023-12-20T17:35:03;8.50;99.90
38973;DHT22;25333;50.762;4.470;2023-12-20T17:37:28;8.50;99.90
38973;DHT22;25333;50.762;4.470;2023-12-20T17:39:54;8.50;99.90
38973;DHT22;25333;50.762;4.470;2023-12-20T17:42:20;8.50;99.90
38973;DHT22;25333;50.762;4.470;2023-12-20T17:44:45;8.50;99.90
38973;DHT22;25333;50.762;4.470;2023-12-20T17:47:11;8.50;99.90
38973;DHT22;25333;50.762;4.470;2023-12-20T17:49:37;8.50;99.90
38973;DHT22;25333;50.762;4.470;2023-12-20T17:52:04;8.50;99.90
38973;DHT22;25333;50.762;4.470;2023-12-20T17:54:31;8.50;99.90
38973;DHT22;25333;50.762;4.470;2023-12-20T17:56:57;8.50;99.90
38973;DHT22;25333;50.762;4.470;2023-12-20T17:59:24;8.50;99.90
38973;DHT22;25333;50.762;4.470;2023-12-20T18:01:50;8.60;99.90
38973;DHT22;25333;50.762;4.470;2023-12-20T18:04:16;8.50;99.90
38973;DHT22;25333;50.762;4.470;2023-12-20T18:06:45;8.50;99.90
38973;DHT22;25333;50.762;4.470;2023-12-20T18:09:11;8.50;99.90
38973;DHT22;25333;50.762;4.470;2023-12-20T18:11:37;8.60;99.90
38973;DHT22;25333;50.762;4.470;2023-12-20T18:14:02;8.60;99.90
38973;DHT22;25333;50.762;4.470;2023-12-20T19:42:54;8.80;99.90
38973;DHT22;25333;50.762;4.470;2023-12-20T19:45:45;8.80;99.90
38973;DHT22;25333;50.762;4.470;2023-12-20T19:49:17;8.80;99.90
38973;DHT22;25333;50.762;4.470;2023-12-20T19:52:20;8.90;99.90
38973;DHT22;25333;50.762;4.470;2023-12-20T19:55:20;8.90;99.90
38973;DHT22;25333;50.762;4.470;2023-12-20T19:58:26;8.90;99.90
38973;DHT22;25333;50.762;4.470;2023-12-20T20:04:18;8.90;99.90
38973;DHT22;25333;50.762;4.470;2023-12-20T20:07:15;8.90;99.90
38973;DHT22;25333;50.762;4.470;2023-12-20T20:10:19;9.00;99.90
38973;DHT22;25333;50.762;4.470;2023-12-20T20:12:58;9.00;99.90
38973;DHT22;25333;50.762;4.470;2023-12-20T20:15:25;9.00;99.90
38973;DHT22;25333;50.762;4.470;2023-12-20T20:18:19;8.90;99.90
38973;DHT22;25333;50.762;4.470;2023-12-20T20:21:13;8.90;99.90
38973;DHT22;25333;50.762;4.470;2023-12-20T20:24:14;8.90;99.90
38973;DHT22;25333;50.762;4.470;2023-12-20T20:33:49;9.00;99.90
38973;DHT22;25333;50.762;4.470;2023-12-20T20:50:13;9.10;99.90
38973;DHT22;25333;50.762;4.470;2023-12-20T20:59:04;9.20;99.90
38973;DHT22;25333;50.762;4.470;2023-12-20T21:04:47;9.10;99.90
38973;DHT22;25333;50.762;4.470;2023-12-20T21:13:52;9.20;99.90
38973;DHT22;25333;50.762;4.470;2023-12-20T21:29:14;9.20;99.90
38973;DHT22;25333;50.762;4.470;2023-12-20T21:38:58;9.30;99.90
38973;DHT22;25333;50.762;4.470;2023-12-20T21:51:06;9.20;99.90
38973;DHT22;25333;50.762;4.470;2023-12-20T21:57:39;9.20;99.90
38973;DHT22;25333;50.762;4.470;2023-12-20T22:07:09;9.20;99.90
38973;DHT22;25333;50.762;4.470;2023-12-20T22:14:03;9.20;99.90
38973;DHT22;25333;50.762;4.470;2023-12-20T22:16:56;9.20;99.90
38973;DHT22;25333;50.762;4.470;2023-12-20T22:20:25;9.20;99.90
38973;DHT22;25333;50.762;4.470;2023-12-20T22:26:48;9.20;99.90
38973;DHT22;25333;50.762;4.470;2023-12-20T22:30:19;9.20;99.90
38973;DHT22;25333;50.762;4.470;2023-12-20T23:13:47;9.30;99.90
38973;DHT22;25333;50.762;4.470;2023-12-20T23:16:41;9.30;99.90
38973;DHT22;25333;50.762;4.470;2023-12-20T23:19:16;9.30;99.90
38973;DHT22;25333;50.762;4.470;2023-12-20T23:24:36;9.40;99.90
